Airfield :
LOGIN :

Register | Disclaimer

   EN    FR    IT 

 










Legend :    VFR   Marginal VFR   IFR   Intensive IFR   Very Intensive IFR
Visi :
Ceiling :
>= 8 km
>= 3000ft
5 to 8 km
1000 to 3000 ft
1500m to 5 km
500 to 1000 ft
800 to 1500m
200 to 500 ft
< 800m
< 200 ft
Symbols :   Thunderstorms  Fog  Heavy snow  Heavy precipitations  Wind > 20 kt
SIGMETs :     Misc.  Thunderstorms  Icing  Turbulence  Mountain Waves  Volcanic Ashes






- Airport Elevation : 285 ft
- IATA code : OZP


LEMO - Sevilla Moron

CURRENT METAR :
  • 181100Z 20010KT 170V240 9999 -SHRA FEW014 FEW020TCU BKN051 19/17 Q1014 NOSIG

EXPIRED METARs :
  • 181030Z 20009KT 170V230 8000 -SHRA FEW014 FEW020TCU BKN030 19/17 Q1014 NOSIG
  • 181000Z 17010KT 7000 VCSH FEW013TCU BKN014 18/16 Q1014 RESHRA NOSIG
  • 180930Z 16008G18KT 110V200 6000 -SHRA FEW008TCU SCT010 BKN012 18/16 Q1014 NOSIG
  • 180912Z VRB02KT 4000 -SHRA FEW009TCU SCT010 BKN017 18/16 Q1014 NOSIG
  • 180900Z 33001KT 8000 -SHRA SCT007 SCT020TCU BKN027 19/16 Q1013 NOSIG
  • 180830Z VRB01KT 8000 -SHRA FEW003 SCT020TCU BKN030 18/16 Q1014 RESHRA NOSIG

TAF AMD TAF LEMO
Valid from the 18 at 09:00 until the 19 at 09:00 UTC


180938Z 1809/1909 24009KT 9999 SCT030 TX24/1815Z TN15/1905Z
TEMPO 1809/1813 18010KT 4000 SHRA BKN014 FEW015TCU
PROB30
TEMPO 1811/1819 24015G25KT



MET'MAP, your aeronautical weather chart ! - Copyright ORBIFLY December 2007 - Disclaimer

ORBIFLY MET'MAP TEAM :

Programming & Development : Alexandra Zaïnal
Concept & original design : Baudouin d'Aumeries
Assistance for programming : Marc-Olivier Méhu
Technical & hardware support : Manuel Goepfert

Contact : metmap@orbifly.com




SOURCES & CREDITS :

   NOAA